createdAt,value
2023-02-17T00:00:49.207Z,13.13
2023-02-17T00:03:15.831Z,13.19
2023-02-17T00:05:42.414Z,13.18
2023-02-17T00:08:09.807Z,13.18
2023-02-17T00:10:38.698Z,13.20
2023-02-17T00:13:05.253Z,13.21
2023-02-17T00:15:33.962Z,13.24
2023-02-17T00:18:00.672Z,13.24
2023-02-17T00:20:30.782Z,13.23
2023-02-17T00:22:57.755Z,13.23
2023-02-17T00:25:24.485Z,13.23
2023-02-17T00:27:51.323Z,13.21
2023-02-17T00:30:18.219Z,13.19
2023-02-17T00:32:44.931Z,13.17
2023-02-17T00:35:12.582Z,13.13
2023-02-17T00:37:45.404Z,13.11
2023-02-17T00:40:12.830Z,13.08
2023-02-17T00:42:43.788Z,13.06
2023-02-17T00:45:10.422Z,13.04
2023-02-17T00:47:37.030Z,13.01
2023-02-17T00:50:05.154Z,13.01
2023-02-17T00:52:31.802Z,13.00
2023-02-17T00:54:58.411Z,12.98
2023-02-17T00:57:25.688Z,12.96
2023-02-17T00:59:53.093Z,12.94
2023-02-17T01:02:19.725Z,12.92
2023-02-17T01:04:46.330Z,12.91
2023-02-17T01:07:15.347Z,12.90
2023-02-17T01:09:42.260Z,12.91
2023-02-17T01:12:11.805Z,12.93
2023-02-17T01:14:38.640Z,12.94
2023-02-17T01:17:05.844Z,12.94
2023-02-17T01:19:32.842Z,12.95
2023-02-17T01:21:59.535Z,12.95
2023-02-17T01:24:27.003Z,12.95
2023-02-17T01:26:53.772Z,12.95
2023-02-17T01:29:21.163Z,12.95
2023-02-17T01:31:48.314Z,12.96
2023-02-17T01:34:17.728Z,13.00
2023-02-17T01:36:44.907Z,13.01
2023-02-17T01:39:14.688Z,13.02
2023-02-17T01:41:41.864Z,13.04
2023-02-17T01:44:18.791Z,13.04
2023-02-17T01:46:46.750Z,13.06
2023-02-17T01:49:18.279Z,13.09
2023-02-17T01:51:49.178Z,13.12
2023-02-17T01:54:18.932Z,13.11
2023-02-17T01:56:46.531Z,13.11
2023-02-17T01:59:20.449Z,13.10
2023-02-17T02:01:50.315Z,13.12
2023-02-17T02:04:18.615Z,13.16
2023-02-17T02:06:47.620Z,13.17
2023-02-17T02:09:27.631Z,13.18
2023-02-17T02:11:59.357Z,13.18
2023-02-17T02:14:31.317Z,13.22
2023-02-17T02:17:20.787Z,13.23
2023-02-17T02:19:56.696Z,13.23
2023-02-17T02:22:34.158Z,13.24
2023-02-17T02:25:13.171Z,13.24
2023-02-17T02:27:43.145Z,13.25
2023-02-17T02:30:25.731Z,13.25
2023-02-17T02:32:57.230Z,13.29
2023-02-17T02:35:28.288Z,13.32
2023-02-17T02:38:00.929Z,13.34
2023-02-17T02:40:30.565Z,13.33
2023-02-17T02:42:57.319Z,13.32
2023-02-17T02:45:24.028Z,13.33
2023-02-17T02:47:52.388Z,13.32
2023-02-17T02:50:38.687Z,13.31
2023-02-17T02:53:31.592Z,13.29
2023-02-17T02:56:05.694Z,13.27
2023-02-17T02:58:32.884Z,13.24
2023-02-17T03:01:13.364Z,13.22
2023-02-17T03:03:48.932Z,13.19
2023-02-17T03:06:22.488Z,13.18
2023-02-17T03:09:08.786Z,13.15
2023-02-17T03:11:36.106Z,13.14
2023-02-17T03:14:11.577Z,13.14
2023-02-17T03:16:39.324Z,13.16
2023-02-17T03:19:06.557Z,13.17
2023-02-17T03:21:38.091Z,13.17
2023-02-17T03:24:05.886Z,13.18
2023-02-17T03:26:32.715Z,13.18
2023-02-17T03:29:01.153Z,13.18
2023-02-17T03:31:30.912Z,13.19
2023-02-17T03:33:58.795Z,13.23
2023-02-17T03:36:25.641Z,13.25
2023-02-17T03:38:56.485Z,13.29
2023-02-17T03:41:23.307Z,13.32
2023-02-17T03:43:50.101Z,13.35
2023-02-17T03:46:17.056Z,13.35
2023-02-17T03:48:43.907Z,13.35
2023-02-17T03:51:18.388Z,13.33
2023-02-17T03:53:49.431Z,13.31
2023-02-17T03:56:16.484Z,13.32
2023-02-17T03:58:43.625Z,13.32
2023-02-17T04:01:11.660Z,13.34
2023-02-17T04:03:40.486Z,13.34
2023-02-17T04:06:09.191Z,13.33
2023-02-17T04:08:38.570Z,13.33
2023-02-17T04:11:08.746Z,13.34
2023-02-17T04:13:39.512Z,13.34
2023-02-17T04:16:10.717Z,13.33
2023-02-17T04:18:41.252Z,13.35
2023-02-17T04:21:11.680Z,13.41
2023-02-17T04:23:40.223Z,13.43
2023-02-17T04:26:08.704Z,13.45
2023-02-17T04:28:41.129Z,13.45
2023-02-17T04:31:10.096Z,13.47
2023-02-17T04:33:41.030Z,13.48
2023-02-17T04:36:11.735Z,13.48
2023-02-17T04:38:41.714Z,13.47
2023-02-17T04:41:11.783Z,13.47
2023-02-17T04:43:41.105Z,13.47
2023-02-17T04:46:11.215Z,13.43
2023-02-17T04:48:43.787Z,13.39
2023-02-17T04:51:13.041Z,13.33
2023-02-17T04:53:42.392Z,13.30
2023-02-17T04:56:12.179Z,13.25
2023-02-17T04:58:41.945Z,13.18
2023-02-17T05:01:10.864Z,13.15
2023-02-17T05:03:39.784Z,13.16
2023-02-17T05:22:55.747Z,14.17
2023-02-17T05:25:24.107Z,14.36
2023-02-17T05:27:53.087Z,14.27
2023-02-17T05:30:21.339Z,14.17
2023-02-17T05:32:51.209Z,14.07
2023-02-17T05:35:19.909Z,13.96
2023-02-17T05:37:47.961Z,13.89
2023-02-17T05:40:16.832Z,13.81
2023-02-17T05:42:45.477Z,13.75
2023-02-17T05:45:13.603Z,13.71
2023-02-17T05:47:41.760Z,13.66
2023-02-17T05:50:10.497Z,13.60
2023-02-17T05:52:38.772Z,13.58
2023-02-17T05:55:07.284Z,13.51
2023-02-17T05:57:35.835Z,13.48
2023-02-17T06:00:04.777Z,13.48
2023-02-17T06:02:40.254Z,13.50
2023-02-17T06:05:09.475Z,13.51
2023-02-17T06:07:38.972Z,13.53
2023-02-17T06:10:08.695Z,13.54
2023-02-17T06:12:36.874Z,13.55
2023-02-17T06:15:05.627Z,13.54
2023-02-17T06:17:34.276Z,13.51
2023-02-17T06:20:02.307Z,13.49
2023-02-17T06:24:17.694Z,12.26
2023-02-17T06:26:45.914Z,13.47
2023-02-17T06:29:13.943Z,13.74
2023-02-17T06:31:43.319Z,13.79
2023-02-17T06:34:12.177Z,13.77
2023-02-17T06:36:41.250Z,13.75
2023-02-17T06:39:09.414Z,13.72
2023-02-17T06:41:37.600Z,13.70
2023-02-17T06:44:14.159Z,13.67
2023-02-17T06:46:46.183Z,13.61
2023-02-17T06:49:14.823Z,13.57
2023-02-17T06:51:43.913Z,13.55
2023-02-17T06:54:12.398Z,13.56
2023-02-17T06:56:40.541Z,13.54
2023-02-17T06:59:08.741Z,13.56
2023-02-17T07:01:37.664Z,13.59
2023-02-17T07:04:06.200Z,13.60
2023-02-17T07:06:38.925Z,13.60
2023-02-17T07:09:07.520Z,13.61
2023-02-17T07:11:36.009Z,13.61
2023-02-17T07:14:05.516Z,13.63
2023-02-17T07:16:33.824Z,13.62
2023-02-17T07:19:05.210Z,13.55
2023-02-17T07:21:34.285Z,13.63
2023-02-17T07:24:03.468Z,13.74
2023-02-17T07:26:36.925Z,13.81
2023-02-17T07:29:05.290Z,13.80
2023-02-17T07:31:34.263Z,13.81
2023-02-17T07:34:02.901Z,13.81
2023-02-17T07:36:33.814Z,13.81
2023-02-17T07:39:03.422Z,13.80
2023-02-17T07:41:33.701Z,13.80
2023-02-17T07:44:06.958Z,13.82
2023-02-17T07:46:35.095Z,13.82
2023-02-17T07:49:03.178Z,13.82
2023-02-17T07:51:31.280Z,13.80
2023-02-17T07:54:00.836Z,13.78
2023-02-17T07:56:30.225Z,13.74
2023-02-17T07:58:59.672Z,13.70
2023-02-17T08:01:28.047Z,13.66
2023-02-17T08:04:03.231Z,13.60
2023-02-17T08:06:33.828Z,13.49
2023-02-17T08:09:20.636Z,13.40
2023-02-17T08:12:07.564Z,13.38
2023-02-17T08:14:37.397Z,13.47
2023-02-17T08:17:06.940Z,13.53
2023-02-17T08:19:47.529Z,13.45
2023-02-17T08:22:20.370Z,13.30
2023-02-17T08:24:49.495Z,13.19
2023-02-17T08:27:18.224Z,13.13
2023-02-17T08:29:46.593Z,13.13
2023-02-17T08:32:15.255Z,13.11
2023-02-17T08:34:44.474Z,13.05
2023-02-17T08:37:12.623Z,13.05
2023-02-17T08:39:40.986Z,13.03
2023-02-17T08:42:09.515Z,12.97
2023-02-17T08:44:38.565Z,12.95
2023-02-17T08:47:11.908Z,12.92
2023-02-17T08:49:40.024Z,12.87
2023-02-17T08:52:08.683Z,12.90
2023-02-17T08:54:37.774Z,13.06
2023-02-17T08:57:06.772Z,13.14
2023-02-17T08:59:35.151Z,13.16
2023-02-17T09:02:04.271Z,13.18
2023-02-17T09:04:32.749Z,13.21
2023-02-17T09:07:01.298Z,13.24
2023-02-17T09:09:29.897Z,13.24
2023-02-17T09:11:58.828Z,13.23
2023-02-17T09:14:27.955Z,13.17
2023-02-17T09:16:57.119Z,13.08
2023-02-17T09:19:27.166Z,13.03
2023-02-17T09:21:56.048Z,12.96
2023-02-17T09:24:24.137Z,12.92
2023-02-17T09:26:52.175Z,12.87
2023-02-17T09:29:20.415Z,12.78
2023-02-17T09:31:48.640Z,12.69
2023-02-17T09:34:17.384Z,12.62
2023-02-17T09:36:46.233Z,12.71
2023-02-17T09:39:15.079Z,12.89
2023-02-17T09:41:48.031Z,13.04
2023-02-17T09:44:45.684Z,13.07
2023-02-17T09:47:25.306Z,13.00
2023-02-17T09:49:59.091Z,13.01
2023-02-17T09:52:53.771Z,13.00
2023-02-17T09:55:30.076Z,13.03
2023-02-17T09:58:07.071Z,13.01
2023-02-17T10:00:38.356Z,13.01
2023-02-17T10:03:18.909Z,13.07
2023-02-17T10:05:58.862Z,13.09
2023-02-17T10:08:30.819Z,13.12
2023-02-17T10:11:05.404Z,13.30
2023-02-17T10:13:38.280Z,13.42
2023-02-17T10:16:09.932Z,13.42
2023-02-17T10:18:46.867Z,13.36
2023-02-17T10:21:25.395Z,13.19
2023-02-17T10:23:53.997Z,13.20
2023-02-17T10:26:40.897Z,13.12
2023-02-17T10:29:31.226Z,13.11
2023-02-17T10:32:11.657Z,13.10
2023-02-17T10:35:03.513Z,13.09
2023-02-17T10:37:47.673Z,13.05
2023-02-17T10:40:17.643Z,13.09
2023-02-17T10:42:47.910Z,13.16
2023-02-17T10:45:21.900Z,13.23
2023-02-17T10:47:49.867Z,13.24
2023-02-17T10:50:22.683Z,13.21
2023-02-17T10:52:51.201Z,13.21
2023-02-17T10:55:38.569Z,13.23
2023-02-17T10:58:25.525Z,13.25
2023-02-17T11:00:56.617Z,13.28
2023-02-17T11:03:27.312Z,13.30
2023-02-17T11:06:02.744Z,13.35
2023-02-17T11:08:39.846Z,13.42
2023-02-17T11:11:17.485Z,13.49
2023-02-17T11:14:05.941Z,13.55
2023-02-17T11:16:59.063Z,13.61
2023-02-17T11:19:28.954Z,13.63
2023-02-17T11:21:58.940Z,13.68
2023-02-17T11:24:28.673Z,13.76
2023-02-17T11:26:58.573Z,13.88
2023-02-17T11:29:30.367Z,13.96
2023-02-17T11:32:08.513Z,13.98
2023-02-17T11:34:39.126Z,14.00
2023-02-17T11:37:13.382Z,13.97
2023-02-17T11:39:49.542Z,13.96
2023-02-17T11:42:37.745Z,13.93
2023-02-17T11:45:19.083Z,13.96
2023-02-17T11:48:19.885Z,13.99
2023-02-17T11:51:14.415Z,13.99
2023-02-17T11:53:45.766Z,14.00
2023-02-17T11:56:17.251Z,14.01
2023-02-17T11:58:54.809Z,14.04
2023-02-17T12:01:43.906Z,14.10
2023-02-17T12:04:31.295Z,14.09
2023-02-17T12:07:26.206Z,14.04
2023-02-17T12:10:11.191Z,14.05
2023-02-17T12:13:04.695Z,14.08
2023-02-17T12:15:45.140Z,14.10
2023-02-17T12:18:22.967Z,14.11
2023-02-17T12:20:54.585Z,14.12
2023-02-17T12:23:38.607Z,14.10
2023-02-17T12:26:32.128Z,14.07
2023-02-17T12:29:11.452Z,14.09
2023-02-17T12:32:17.632Z,14.12
2023-02-17T12:35:30.858Z,14.14
2023-02-17T12:38:02.166Z,14.13
2023-02-17T12:40:52.473Z,14.11
2023-02-17T12:43:27.229Z,14.12
2023-02-17T12:45:57.574Z,14.12
2023-02-17T12:48:37.210Z,14.14
2023-02-17T12:51:15.567Z,14.19
2023-02-17T12:53:49.701Z,14.21
2023-02-17T12:56:21.034Z,14.18
2023-02-17T12:58:49.881Z,14.21
2023-02-17T13:01:19.986Z,14.29
2023-02-17T13:03:49.938Z,14.35
2023-02-17T13:06:25.819Z,14.34
2023-02-17T13:09:13.884Z,14.30
2023-02-17T13:11:41.983Z,14.24
2023-02-17T13:14:12.246Z,14.23
2023-02-17T13:16:44.865Z,14.26
2023-02-17T13:19:14.636Z,14.32
2023-02-17T13:21:54.349Z,14.35
2023-02-17T13:24:39.212Z,14.35
2023-02-17T13:27:40.161Z,14.23
2023-02-17T13:30:29.132Z,14.16
2023-02-17T13:33:05.556Z,14.10
2023-02-17T13:35:36.185Z,13.98
2023-02-17T13:38:04.248Z,13.84
2023-02-17T13:40:35.922Z,13.75
2023-02-17T13:43:18.125Z,13.64
2023-02-17T13:46:04.053Z,13.52
2023-02-17T13:48:34.554Z,13.37
2023-02-17T13:51:07.164Z,13.21
2023-02-17T13:53:40.246Z,13.16
2023-02-17T13:56:12.066Z,13.16
2023-02-17T13:58:42.044Z,13.11
2023-02-17T14:01:18.375Z,13.01
2023-02-17T14:03:51.660Z,13.04
2023-02-17T14:06:40.667Z,13.13
2023-02-17T14:09:32.005Z,13.22
2023-02-17T14:12:02.780Z,13.21
2023-02-17T14:14:33.003Z,13.15
2023-02-17T14:17:32.791Z,13.08
2023-02-17T14:20:04.714Z,13.02
2023-02-17T14:22:34.985Z,13.00
2023-02-17T14:25:13.514Z,13.01
2023-02-17T14:27:49.928Z,12.98
2023-02-17T14:30:37.829Z,12.81
2023-02-17T14:33:07.348Z,12.63
2023-02-17T14:35:35.598Z,12.67
2023-02-17T14:38:09.205Z,12.61
2023-02-17T14:40:40.009Z,12.50
2023-02-17T14:43:09.069Z,12.49
2023-02-17T14:45:37.494Z,12.51
2023-02-17T14:48:07.159Z,12.53
2023-02-17T14:50:42.493Z,12.54
2023-02-17T14:53:32.815Z,12.51
2023-02-17T14:56:02.682Z,12.42
2023-02-17T14:58:35.768Z,12.21
2023-02-17T15:01:05.966Z,11.98
2023-02-17T15:03:34.218Z,11.80
2023-02-17T15:06:02.558Z,11.78
2023-02-17T15:08:34.438Z,11.82
2023-02-17T15:11:02.825Z,11.84
2023-02-17T15:13:32.190Z,11.86
2023-02-17T15:16:09.362Z,11.81
2023-02-17T15:18:42.768Z,11.71
2023-02-17T15:21:28.077Z,11.50
2023-02-17T15:24:18.325Z,11.24
2023-02-17T15:26:48.363Z,11.21
2023-02-17T15:29:24.051Z,11.32
2023-02-17T15:31:55.877Z,11.61
2023-02-17T15:34:26.710Z,11.91
2023-02-17T15:36:54.811Z,12.06
2023-02-17T15:39:23.131Z,12.18
2023-02-17T15:41:52.420Z,12.26
2023-02-17T15:44:25.480Z,12.30
2023-02-17T15:46:55.127Z,12.36
2023-02-17T15:49:23.349Z,12.42
2023-02-17T15:51:51.513Z,12.45
2023-02-17T15:54:20.664Z,12.38
2023-02-17T15:56:50.945Z,12.26
2023-02-17T15:59:24.342Z,12.17
2023-02-17T16:01:56.146Z,12.07
2023-02-17T16:04:24.383Z,11.99
2023-02-17T16:06:52.554Z,11.93
2023-02-17T16:09:21.815Z,11.83
2023-02-17T16:11:51.910Z,11.66
2023-02-17T16:14:28.639Z,11.50
2023-02-17T16:17:00.150Z,11.31
2023-02-17T16:19:28.691Z,11.21
2023-02-17T16:21:57.046Z,11.13
2023-02-17T16:24:25.089Z,11.10
2023-02-17T16:26:53.946Z,11.15
2023-02-17T16:29:22.302Z,11.19
2023-02-17T16:31:50.620Z,11.12
2023-02-17T16:34:23.591Z,11.07
2023-02-17T16:36:53.761Z,11.06
2023-02-17T16:39:22.399Z,11.05
2023-02-17T16:41:50.685Z,11.02
2023-02-17T16:44:20.948Z,10.96
2023-02-17T16:46:53.378Z,10.85
2023-02-17T16:49:32.093Z,10.85
2023-02-17T16:52:05.490Z,10.93
2023-02-17T16:54:35.738Z,10.95
2023-02-17T16:57:04.017Z,10.83
2023-02-17T16:59:33.061Z,10.68
2023-02-17T17:02:01.942Z,10.56
2023-02-17T17:04:30.280Z,10.55
2023-02-17T17:06:58.999Z,10.60
2023-02-17T17:09:28.144Z,10.72
2023-02-17T17:11:57.550Z,10.85
2023-02-17T17:14:25.776Z,10.93
2023-02-17T17:17:01.125Z,11.02
2023-02-17T17:19:29.549Z,11.13
2023-02-17T17:21:57.722Z,11.22
2023-02-17T17:24:26.137Z,11.30
2023-02-17T17:26:56.056Z,11.38
2023-02-17T17:29:25.050Z,11.43
2023-02-17T17:31:53.310Z,11.44
2023-02-17T17:34:21.822Z,11.52
2023-02-17T17:36:49.953Z,11.59
2023-02-17T17:39:20.920Z,11.50
2023-02-17T17:41:49.791Z,11.35
2023-02-17T17:44:18.148Z,11.30
2023-02-17T17:46:46.655Z,11.26
2023-02-17T17:49:14.932Z,11.21
2023-02-17T17:51:43.414Z,11.13
2023-02-17T17:54:11.605Z,11.09
2023-02-17T17:56:43.074Z,11.16
2023-02-17T17:59:12.860Z,11.18
2023-02-17T18:01:43.910Z,11.03
2023-02-17T18:04:13.944Z,10.93
2023-02-17T18:06:47.635Z,10.88
2023-02-17T18:09:31.147Z,10.88
2023-02-17T18:12:12.711Z,10.92
2023-02-17T18:14:42.471Z,11.00
2023-02-17T18:17:12.072Z,11.15
2023-02-17T18:19:40.170Z,11.35
2023-02-17T18:22:08.324Z,11.44
2023-02-17T18:24:36.693Z,11.41
2023-02-17T18:34:59.497Z,10.95
2023-02-17T18:37:27.960Z,10.86
2023-02-17T18:42:21.664Z,9.43
2023-02-17T18:44:49.844Z,10.46
2023-02-17T18:47:18.217Z,10.58
2023-02-17T18:49:46.937Z,10.59
2023-02-17T18:52:15.110Z,10.60
2023-02-17T18:54:45.198Z,10.59
2023-02-17T18:57:16.791Z,10.70
2023-02-17T18:59:45.975Z,10.90
2023-02-17T19:02:14.257Z,10.99
2023-02-17T19:04:45.078Z,11.09
2023-02-17T19:07:13.573Z,11.19
2023-02-17T19:09:45.014Z,11.26
2023-02-17T19:12:13.807Z,11.31
2023-02-17T19:14:42.742Z,11.37
2023-02-17T19:17:12.300Z,11.44
2023-02-17T19:19:41.287Z,11.45
2023-02-17T19:22:09.882Z,11.58
2023-02-17T19:24:39.071Z,11.76
2023-02-17T19:27:07.100Z,11.85
2023-02-17T19:29:35.528Z,11.93
2023-02-17T19:32:04.662Z,11.99
2023-02-17T19:34:34.388Z,12.01
2023-02-17T19:37:03.130Z,12.06
2023-02-17T19:39:31.819Z,12.09
2023-02-17T19:42:00.375Z,12.11
2023-02-17T19:44:30.518Z,12.15
2023-02-17T19:46:59.014Z,12.17
2023-02-17T19:49:27.239Z,12.29
2023-02-17T19:51:56.020Z,12.44
2023-02-17T19:54:24.867Z,12.47
2023-02-17T19:56:53.358Z,12.44
2023-02-17T19:59:21.523Z,12.38
2023-02-17T20:01:49.673Z,12.31
2023-02-17T20:04:17.774Z,12.28
2023-02-17T20:06:48.043Z,12.24
2023-02-17T20:09:18.265Z,12.24
2023-02-17T20:11:47.518Z,12.26
2023-02-17T20:14:16.921Z,12.28
2023-02-17T20:16:48.888Z,12.41
2023-02-17T20:19:17.369Z,12.50
2023-02-17T20:21:46.014Z,12.48
2023-02-17T20:24:15.662Z,12.40
2023-02-17T20:26:45.610Z,12.37
2023-02-17T20:29:16.326Z,12.37
2023-02-17T20:31:52.509Z,12.35
2023-02-17T20:34:35.933Z,12.32
2023-02-17T20:37:06.480Z,12.28
2023-02-17T20:39:35.918Z,12.22
2023-02-17T20:42:04.438Z,12.15
2023-02-17T20:44:32.881Z,12.23
2023-02-17T20:47:01.499Z,12.34
2023-02-17T20:49:30.384Z,12.40
2023-02-17T20:51:59.420Z,12.45
2023-02-17T20:54:27.606Z,12.48
2023-02-17T20:56:58.212Z,12.49
2023-02-17T20:59:27.311Z,12.51
2023-02-17T21:01:55.900Z,12.51
2023-02-17T21:04:25.633Z,12.50
2023-02-17T21:06:54.096Z,12.47
2023-02-17T21:09:22.560Z,12.41
2023-02-17T21:11:51.104Z,12.46
2023-02-17T21:14:19.271Z,12.57
2023-02-17T21:16:47.934Z,12.58
2023-02-17T21:19:16.800Z,12.49
2023-02-17T21:21:46.712Z,12.40
2023-02-17T21:24:14.792Z,12.38
2023-02-17T21:26:43.494Z,12.38
2023-02-17T21:29:11.744Z,12.36
2023-02-17T21:31:39.988Z,12.34
2023-02-17T21:34:09.230Z,12.27
2023-02-17T21:36:37.368Z,12.31
2023-02-17T21:39:05.614Z,12.44
2023-02-17T21:41:34.592Z,12.48
2023-02-17T21:44:22.877Z,12.52
2023-02-17T21:46:52.024Z,12.57
2023-02-17T21:49:20.230Z,12.59
2023-02-17T21:51:48.367Z,12.55
2023-02-17T21:54:17.050Z,12.51
2023-02-17T21:56:46.355Z,12.52
2023-02-17T21:59:14.649Z,12.55
2023-02-17T22:01:43.119Z,12.68
2023-02-17T22:04:11.537Z,12.79
2023-02-17T22:06:40.844Z,12.80
2023-02-17T22:09:10.049Z,12.79
2023-02-17T22:11:39.946Z,12.77
2023-02-17T22:14:12.115Z,12.79
2023-02-17T22:16:40.348Z,12.82
2023-02-17T22:19:10.672Z,12.81
2023-02-17T22:21:38.707Z,12.81
2023-02-17T22:24:08.475Z,12.81
2023-02-17T22:26:36.823Z,12.91
2023-02-17T22:29:05.143Z,13.03
2023-02-17T22:31:34.530Z,13.05
2023-02-17T22:34:07.947Z,13.03
2023-02-17T22:36:37.053Z,13.02
2023-02-17T22:39:06.367Z,13.01
2023-02-17T22:41:35.075Z,13.01
2023-02-17T22:44:03.494Z,13.03
2023-02-17T22:46:31.662Z,13.06
2023-02-17T22:49:00.301Z,13.06
2023-02-17T22:51:34.998Z,13.08
2023-02-17T22:54:03.492Z,13.11
2023-02-17T22:56:36.250Z,13.22
2023-02-17T22:59:06.130Z,13.33
2023-02-17T23:01:35.588Z,13.36
2023-02-17T23:04:04.167Z,13.36
2023-02-17T23:06:34.325Z,13.36
2023-02-17T23:09:02.685Z,13.40
2023-02-17T23:11:51.540Z,13.43
2023-02-17T23:14:33.760Z,13.46
2023-02-17T23:17:04.818Z,13.46
2023-02-17T23:19:36.441Z,13.47
2023-02-17T23:22:14.622Z,13.49
2023-02-17T23:24:44.244Z,13.51
2023-02-17T23:27:12.631Z,13.62
2023-02-17T23:29:41.522Z,13.75
2023-02-17T23:32:10.788Z,13.79
2023-02-17T23:34:40.427Z,13.76
2023-02-17T23:37:08.521Z,13.74
2023-02-17T23:39:38.214Z,13.72
2023-02-17T23:42:08.191Z,13.73
2023-02-17T23:44:37.964Z,13.70
2023-02-17T23:47:06.623Z,13.65
2023-02-17T23:49:35.077Z,13.59
2023-02-17T23:52:03.325Z,13.57
2023-02-17T23:54:31.391Z,13.62
2023-02-17T23:56:59.649Z,13.70
2023-02-17T23:59:27.891Z,13.73
